Anderson, California
Current Conditions -  °F | °C
As of 8:53 PM on Tuesday 21 Oct 2014 (Local Time) from KRDD Reporting Station
Clear Clear  
Wind Chill: 56°   Ceiling: Unl
Heat Index: 56°   Visibility: 10mi
Dew Point: 49°   Wind: 5mph
Humidity: 77%   Direction: 340°NNW
Pressure: 30.02"   Gusts: NA
Location:  40.45°N, 122.3°W
Report Text: KRDD 220353Z AUTO 34004KT 10SM CLR 13/09 A3002 RMK AO2 SLP163 T01330094
Loading
Personal Weather Stations






























Interactive Weather Map
Tropical Storm Tracking
New forecast layout! Learn more

10-Day Weather Forecast

Advertisements
Track Severe Weather on mobile